sensor_id;sensor_type;location;lat;lon;timestamp;temperature;humidity
4097;DHT22;2062;50.694;7.246;2022-09-27T00:02:05;23.70;37.40
4097;DHT22;2062;50.694;7.246;2022-09-27T00:04:32;23.70;37.40
4097;DHT22;2062;50.694;7.246;2022-09-27T00:06:59;23.70;38.00
4097;DHT22;2062;50.694;7.246;2022-09-27T00:09:26;23.70;37.40
4097;DHT22;2062;50.694;7.246;2022-09-27T00:11:53;23.70;37.30
4097;DHT22;2062;50.694;7.246;2022-09-27T00:14:22;23.70;37.40
4097;DHT22;2062;50.694;7.246;2022-09-27T00:16:48;23.70;37.30
4097;DHT22;2062;50.694;7.246;2022-09-27T00:19:17;23.70;37.30
4097;DHT22;2062;50.694;7.246;2022-09-27T00:21:45;23.70;37.30
4097;DHT22;2062;50.694;7.246;2022-09-27T00:24:13;23.60;37.20
4097;DHT22;2062;50.694;7.246;2022-09-27T00:26:40;23.70;37.30
4097;DHT22;2062;50.694;7.246;2022-09-27T00:29:08;23.60;37.20
4097;DHT22;2062;50.694;7.246;2022-09-27T00:31:37;23.70;37.30
4097;DHT22;2062;50.694;7.246;2022-09-27T00:34:06;23.60;37.20
4097;DHT22;2062;50.694;7.246;2022-09-27T00:36:33;23.60;37.20
4097;DHT22;2062;50.694;7.246;2022-09-27T00:39:00;23.70;37.30
4097;DHT22;2062;50.694;7.246;2022-09-27T00:41:29;23.60;37.20
4097;DHT22;2062;50.694;7.246;2022-09-27T00:43:58;23.60;37.20
4097;DHT22;2062;50.694;7.246;2022-09-27T00:46:28;23.70;37.30
4097;DHT22;2062;50.694;7.246;2022-09-27T00:49:05;23.60;37.20
4097;DHT22;2062;50.694;7.246;2022-09-27T00:51:37;23.60;37.10
4097;DHT22;2062;50.694;7.246;2022-09-27T00:54:06;23.60;37.20
4097;DHT22;2062;50.694;7.246;2022-09-27T00:56:36;23.60;37.10
4097;DHT22;2062;50.694;7.246;2022-09-27T00:59:07;23.60;37.20
4097;DHT22;2062;50.694;7.246;2022-09-27T01:01:36;23.60;37.10
4097;DHT22;2062;50.694;7.246;2022-09-27T01:04:07;23.60;37.10
4097;DHT22;2062;50.694;7.246;2022-09-27T01:06:35;23.60;37.10
4097;DHT22;2062;50.694;7.246;2022-09-27T01:09:03;23.60;37.10
4097;DHT22;2062;50.694;7.246;2022-09-27T01:11:39;23.60;37.10
4097;DHT22;2062;50.694;7.246;2022-09-27T01:14:27;23.60;37.80
4097;DHT22;2062;50.694;7.246;2022-09-27T01:17:03;23.60;37.10
4097;DHT22;2062;50.694;7.246;2022-09-27T01:19:52;23.60;37.10
4097;DHT22;2062;50.694;7.246;2022-09-27T01:22:27;23.60;37.10
4097;DHT22;2062;50.694;7.246;2022-09-27T01:25:06;23.60;37.10
4097;DHT22;2062;50.694;7.246;2022-09-27T01:28:06;23.60;37.10
4097;DHT22;2062;50.694;7.246;2022-09-27T01:30:41;23.60;37.10
4097;DHT22;2062;50.694;7.246;2022-09-27T01:33:21;23.60;37.10
4097;DHT22;2062;50.694;7.246;2022-09-27T01:36:00;23.60;37.00
4097;DHT22;2062;50.694;7.246;2022-09-27T01:38:37;23.60;37.00
4097;DHT22;2062;50.694;7.246;2022-09-27T01:41:11;23.60;37.00
4097;DHT22;2062;50.694;7.246;2022-09-27T01:43:45;23.60;37.00
4097;DHT22;2062;50.694;7.246;2022-09-27T01:46:19;23.60;37.00
4097;DHT22;2062;50.694;7.246;2022-09-27T01:48:49;23.60;37.00
4097;DHT22;2062;50.694;7.246;2022-09-27T01:51:19;23.60;37.00
4097;DHT22;2062;50.694;7.246;2022-09-27T01:53:49;23.60;37.00
4097;DHT22;2062;50.694;7.246;2022-09-27T01:56:21;23.60;37.00
4097;DHT22;2062;50.694;7.246;2022-09-27T01:58:55;23.60;37.00
4097;DHT22;2062;50.694;7.246;2022-09-27T02:01:26;23.60;37.00
4097;DHT22;2062;50.694;7.246;2022-09-27T02:03:56;23.60;36.90
4097;DHT22;2062;50.694;7.246;2022-09-27T02:06:32;23.60;36.90
4097;DHT22;2062;50.694;7.246;2022-09-27T02:09:03;23.60;37.00
4097;DHT22;2062;50.694;7.246;2022-09-27T02:11:31;23.60;37.00
4097;DHT22;2062;50.694;7.246;2022-09-27T02:14:03;23.60;36.90
4097;DHT22;2062;50.694;7.246;2022-09-27T02:16:45;23.60;36.90
4097;DHT22;2062;50.694;7.246;2022-09-27T02:19:20;23.60;36.90
4097;DHT22;2062;50.694;7.246;2022-09-27T02:21:55;23.60;36.90
4097;DHT22;2062;50.694;7.246;2022-09-27T02:24:40;23.60;36.90
4097;DHT22;2062;50.694;7.246;2022-09-27T02:27:13;23.60;36.90
4097;DHT22;2062;50.694;7.246;2022-09-27T02:29:44;23.60;36.90
4097;DHT22;2062;50.694;7.246;2022-09-27T02:32:16;23.60;36.90
4097;DHT22;2062;50.694;7.246;2022-09-27T02:34:44;23.60;36.90
4097;DHT22;2062;50.694;7.246;2022-09-27T02:37:12;23.60;36.90
4097;DHT22;2062;50.694;7.246;2022-09-27T02:39:40;23.60;37.60
4097;DHT22;2062;50.694;7.246;2022-09-27T02:42:07;23.60;36.90
4097;DHT22;2062;50.694;7.246;2022-09-27T02:44:34;23.60;36.90
4097;DHT22;2062;50.694;7.246;2022-09-27T02:47:14;23.60;36.90
4097;DHT22;2062;50.694;7.246;2022-09-27T02:49:58;23.60;36.80
4097;DHT22;2062;50.694;7.246;2022-09-27T02:52:33;23.60;36.80
4097;DHT22;2062;50.694;7.246;2022-09-27T02:55:11;23.60;36.80
4097;DHT22;2062;50.694;7.246;2022-09-27T02:57:50;23.60;36.90
4097;DHT22;2062;50.694;7.246;2022-09-27T03:00:24;23.50;36.80
4097;DHT22;2062;50.694;7.246;2022-09-27T03:03:02;23.60;36.80
4097;DHT22;2062;50.694;7.246;2022-09-27T03:05:34;23.50;36.80
4097;DHT22;2062;50.694;7.246;2022-09-27T03:08:03;23.50;36.80
4097;DHT22;2062;50.694;7.246;2022-09-27T03:10:30;23.50;36.80
4097;DHT22;2062;50.694;7.246;2022-09-27T03:12:57;23.50;36.80
4097;DHT22;2062;50.694;7.246;2022-09-27T03:15:24;23.50;36.80
4097;DHT22;2062;50.694;7.246;2022-09-27T03:17:51;23.50;36.80
4097;DHT22;2062;50.694;7.246;2022-09-27T03:20:18;23.50;36.80
4097;DHT22;2062;50.694;7.246;2022-09-27T03:22:46;23.50;36.80
4097;DHT22;2062;50.694;7.246;2022-09-27T03:25:13;23.50;36.80
4097;DHT22;2062;50.694;7.246;2022-09-27T03:27:40;23.50;36.80
4097;DHT22;2062;50.694;7.246;2022-09-27T03:30:09;23.50;36.80
4097;DHT22;2062;50.694;7.246;2022-09-27T03:32:36;23.50;36.80
4097;DHT22;2062;50.694;7.246;2022-09-27T03:35:03;23.50;36.80
4097;DHT22;2062;50.694;7.246;2022-09-27T03:37:30;23.50;36.80
4097;DHT22;2062;50.694;7.246;2022-09-27T03:39:58;23.50;36.70
4097;DHT22;2062;50.694;7.246;2022-09-27T03:42:25;23.50;36.80
4097;DHT22;2062;50.694;7.246;2022-09-27T03:44:52;23.50;36.80
4097;DHT22;2062;50.694;7.246;2022-09-27T03:47:20;23.50;36.80
4097;DHT22;2062;50.694;7.246;2022-09-27T03:49:47;23.50;36.70
4097;DHT22;2062;50.694;7.246;2022-09-27T03:52:15;23.50;36.80
4097;DHT22;2062;50.694;7.246;2022-09-27T03:54:43;23.50;36.70
4097;DHT22;2062;50.694;7.246;2022-09-27T03:57:11;23.50;36.70
4097;DHT22;2062;50.694;7.246;2022-09-27T03:59:38;23.50;36.70
4097;DHT22;2062;50.694;7.246;2022-09-27T04:02:04;23.50;36.70
4097;DHT22;2062;50.694;7.246;2022-09-27T04:04:31;23.50;36.80
4097;DHT22;2062;50.694;7.246;2022-09-27T04:06:58;23.50;36.90
4097;DHT22;2062;50.694;7.246;2022-09-27T04:09:25;23.50;36.90
4097;DHT22;2062;50.694;7.246;2022-09-27T04:11:52;23.50;36.90
4097;DHT22;2062;50.694;7.246;2022-09-27T04:14:20;23.50;36.90
4097;DHT22;2062;50.694;7.246;2022-09-27T04:16:47;23.50;36.80
4097;DHT22;2062;50.694;7.246;2022-09-27T04:19:14;23.50;36.80
4097;DHT22;2062;50.694;7.246;2022-09-27T04:21:41;23.50;36.80
4097;DHT22;2062;50.694;7.246;2022-09-27T04:24:08;23.50;37.60
4097;DHT22;2062;50.694;7.246;2022-09-27T04:26:36;23.50;37.10
4097;DHT22;2062;50.694;7.246;2022-09-27T04:29:04;23.50;37.30
4097;DHT22;2062;50.694;7.246;2022-09-27T04:31:32;23.60;37.40
4097;DHT22;2062;50.694;7.246;2022-09-27T04:33:59;23.60;37.40
4097;DHT22;2062;50.694;7.246;2022-09-27T04:36:26;23.60;37.40
4097;DHT22;2062;50.694;7.246;2022-09-27T04:38:53;23.60;37.40
4097;DHT22;2062;50.694;7.246;2022-09-27T04:41:20;23.60;37.60
4097;DHT22;2062;50.694;7.246;2022-09-27T04:43:48;23.60;37.70
4097;DHT22;2062;50.694;7.246;2022-09-27T04:46:15;23.60;37.80
4097;DHT22;2062;50.694;7.246;2022-09-27T04:48:44;23.60;38.00
4097;DHT22;2062;50.694;7.246;2022-09-27T04:51:11;23.60;37.70
4097;DHT22;2062;50.694;7.246;2022-09-27T04:53:38;23.60;37.70
4097;DHT22;2062;50.694;7.246;2022-09-27T04:56:05;23.70;37.70
4097;DHT22;2062;50.694;7.246;2022-09-27T04:58:33;23.60;37.60
4097;DHT22;2062;50.694;7.246;2022-09-27T05:01:01;23.60;37.00
4097;DHT22;2062;50.694;7.246;2022-09-27T05:03:28;23.60;37.10
4097;DHT22;2062;50.694;7.246;2022-09-27T05:05:56;23.60;37.20
4097;DHT22;2062;50.694;7.246;2022-09-27T05:08:23;23.60;37.20
4097;DHT22;2062;50.694;7.246;2022-09-27T05:10:50;23.60;37.20
4097;DHT22;2062;50.694;7.246;2022-09-27T05:13:17;23.60;37.30
4097;DHT22;2062;50.694;7.246;2022-09-27T05:15:44;23.60;37.30
4097;DHT22;2062;50.694;7.246;2022-09-27T05:18:11;23.60;37.30
4097;DHT22;2062;50.694;7.246;2022-09-27T05:20:38;23.60;37.30
4097;DHT22;2062;50.694;7.246;2022-09-27T05:23:06;23.60;37.40
4097;DHT22;2062;50.694;7.246;2022-09-27T05:25:33;23.60;37.40
4097;DHT22;2062;50.694;7.246;2022-09-27T05:28:01;23.60;38.00
4097;DHT22;2062;50.694;7.246;2022-09-27T05:30:28;23.60;37.30
4097;DHT22;2062;50.694;7.246;2022-09-27T05:32:55;23.60;37.30
4097;DHT22;2062;50.694;7.246;2022-09-27T05:35:22;23.60;37.30
4097;DHT22;2062;50.694;7.246;2022-09-27T05:37:52;23.60;37.30
4097;DHT22;2062;50.694;7.246;2022-09-27T05:40:21;23.60;37.40
4097;DHT22;2062;50.694;7.246;2022-09-27T05:42:49;23.60;37.40
4097;DHT22;2062;50.694;7.246;2022-09-27T05:45:16;23.60;37.40
4097;DHT22;2062;50.694;7.246;2022-09-27T05:47:43;23.60;37.40
4097;DHT22;2062;50.694;7.246;2022-09-27T05:50:17;23.60;37.40
4097;DHT22;2062;50.694;7.246;2022-09-27T05:52:44;23.60;37.40
4097;DHT22;2062;50.694;7.246;2022-09-27T05:55:11;23.60;38.10
4097;DHT22;2062;50.694;7.246;2022-09-27T05:57:39;23.60;37.40
4097;DHT22;2062;50.694;7.246;2022-09-27T06:00:07;23.60;37.40
4097;DHT22;2062;50.694;7.246;2022-09-27T06:02:34;23.60;37.40
4097;DHT22;2062;50.694;7.246;2022-09-27T06:05:01;23.60;37.50
4097;DHT22;2062;50.694;7.246;2022-09-27T06:07:29;23.60;37.40
4097;DHT22;2062;50.694;7.246;2022-09-27T06:09:56;23.60;37.40
4097;DHT22;2062;50.694;7.246;2022-09-27T06:12:23;23.60;37.40
4097;DHT22;2062;50.694;7.246;2022-09-27T06:14:51;23.60;37.40
4097;DHT22;2062;50.694;7.246;2022-09-27T06:17:18;23.60;37.40
4097;DHT22;2062;50.694;7.246;2022-09-27T06:19:45;23.60;37.40
4097;DHT22;2062;50.694;7.246;2022-09-27T06:22:14;23.60;37.40
4097;DHT22;2062;50.694;7.246;2022-09-27T06:24:41;23.70;37.50
4097;DHT22;2062;50.694;7.246;2022-09-27T06:27:08;23.60;37.40
4097;DHT22;2062;50.694;7.246;2022-09-27T06:29:35;23.60;37.30
4097;DHT22;2062;50.694;7.246;2022-09-27T06:32:03;23.60;37.30
4097;DHT22;2062;50.694;7.246;2022-09-27T06:34:30;23.60;37.40
4097;DHT22;2062;50.694;7.246;2022-09-27T06:36:57;23.60;37.40
4097;DHT22;2062;50.694;7.246;2022-09-27T06:39:24;23.60;37.30
4097;DHT22;2062;50.694;7.246;2022-09-27T06:41:53;23.60;37.30
4097;DHT22;2062;50.694;7.246;2022-09-27T06:44:22;23.60;37.30
4097;DHT22;2062;50.694;7.246;2022-09-27T06:46:50;23.60;37.20
4097;DHT22;2062;50.694;7.246;2022-09-27T06:49:18;23.60;37.20
4097;DHT22;2062;50.694;7.246;2022-09-27T06:51:47;23.60;37.20
4097;DHT22;2062;50.694;7.246;2022-09-27T06:54:14;23.60;37.80
4097;DHT22;2062;50.694;7.246;2022-09-27T06:56:41;23.60;37.20
4097;DHT22;2062;50.694;7.246;2022-09-27T06:59:08;23.60;37.20
4097;DHT22;2062;50.694;7.246;2022-09-27T07:01:52;23.60;37.10
4097;DHT22;2062;50.694;7.246;2022-09-27T07:04:20;23.60;37.10
4097;DHT22;2062;50.694;7.246;2022-09-27T07:06:49;23.60;37.10
4097;DHT22;2062;50.694;7.246;2022-09-27T07:09:16;23.70;37.20
4097;DHT22;2062;50.694;7.246;2022-09-27T07:11:43;23.70;37.20
4097;DHT22;2062;50.694;7.246;2022-09-27T07:14:10;23.70;37.10
4097;DHT22;2062;50.694;7.246;2022-09-27T07:16:37;23.70;37.10
4097;DHT22;2062;50.694;7.246;2022-09-27T07:19:04;23.70;37.00
4097;DHT22;2062;50.694;7.246;2022-09-27T07:21:33;23.70;37.00
4097;DHT22;2062;50.694;7.246;2022-09-27T07:24:00;23.70;37.00
4097;DHT22;2062;50.694;7.246;2022-09-27T07:26:27;23.70;37.00
4097;DHT22;2062;50.694;7.246;2022-09-27T07:28:54;23.70;37.00
4097;DHT22;2062;50.694;7.246;2022-09-27T07:31:21;23.70;37.00
4097;DHT22;2062;50.694;7.246;2022-09-27T07:33:48;23.70;36.90
4097;DHT22;2062;50.694;7.246;2022-09-27T07:36:18;23.70;36.90
4097;DHT22;2062;50.694;7.246;2022-09-27T07:38:46;23.70;36.90
4097;DHT22;2062;50.694;7.246;2022-09-27T07:41:13;23.70;36.90
4097;DHT22;2062;50.694;7.246;2022-09-27T07:43:40;23.70;36.90
4097;DHT22;2062;50.694;7.246;2022-09-27T07:46:08;23.70;36.90
4097;DHT22;2062;50.694;7.246;2022-09-27T07:48:35;23.70;36.80
4097;DHT22;2062;50.694;7.246;2022-09-27T07:51:05;23.70;36.90
4097;DHT22;2062;50.694;7.246;2022-09-27T07:53:32;23.70;36.90
4097;DHT22;2062;50.694;7.246;2022-09-27T07:56:01;23.70;36.90
4097;DHT22;2062;50.694;7.246;2022-09-27T07:58:28;23.70;36.90
4097;DHT22;2062;50.694;7.246;2022-09-27T08:00:58;23.70;36.90
4097;DHT22;2062;50.694;7.246;2022-09-27T08:03:27;23.70;36.90
4097;DHT22;2062;50.694;7.246;2022-09-27T08:05:54;23.70;36.90
4097;DHT22;2062;50.694;7.246;2022-09-27T08:08:20;23.80;36.80
4097;DHT22;2062;50.694;7.246;2022-09-27T08:10:48;23.80;36.90
4097;DHT22;2062;50.694;7.246;2022-09-27T08:13:16;23.70;36.80
4097;DHT22;2062;50.694;7.246;2022-09-27T08:15:44;23.80;36.80
4097;DHT22;2062;50.694;7.246;2022-09-27T08:18:11;23.80;36.80
4097;DHT22;2062;50.694;7.246;2022-09-27T08:20:38;23.80;36.70
4097;DHT22;2062;50.694;7.246;2022-09-27T08:23:05;23.80;36.70
4097;DHT22;2062;50.694;7.246;2022-09-27T08:25:32;23.80;36.70
4097;DHT22;2062;50.694;7.246;2022-09-27T08:28:01;23.80;36.70
4097;DHT22;2062;50.694;7.246;2022-09-27T08:30:30;23.90;36.70
4097;DHT22;2062;50.694;7.246;2022-09-27T08:32:58;23.90;36.70
4097;DHT22;2062;50.694;7.246;2022-09-27T08:35:26;23.90;36.70
4097;DHT22;2062;50.694;7.246;2022-09-27T08:37:54;23.90;36.60
4097;DHT22;2062;50.694;7.246;2022-09-27T08:40:23;23.90;36.70
4097;DHT22;2062;50.694;7.246;2022-09-27T08:42:59;23.90;36.70
4097;DHT22;2062;50.694;7.246;2022-09-27T08:45:33;23.90;36.70
4097;DHT22;2062;50.694;7.246;2022-09-27T08:48:02;23.90;36.70
4097;DHT22;2062;50.694;7.246;2022-09-27T08:50:32;23.90;36.80
4097;DHT22;2062;50.694;7.246;2022-09-27T08:53:03;23.90;36.80
4097;DHT22;2062;50.694;7.246;2022-09-27T08:55:34;23.90;36.80
4097;DHT22;2062;50.694;7.246;2022-09-27T08:58:08;23.90;36.80
4097;DHT22;2062;50.694;7.246;2022-09-27T09:00:39;23.90;36.80
4097;DHT22;2062;50.694;7.246;2022-09-27T09:03:16;23.90;36.80
4097;DHT22;2062;50.694;7.246;2022-09-27T09:05:50;24.00;36.80
4097;DHT22;2062;50.694;7.246;2022-09-27T09:08:28;24.00;36.80
4097;DHT22;2062;50.694;7.246;2022-09-27T09:11:03;24.00;36.80
4097;DHT22;2062;50.694;7.246;2022-09-27T09:14:07;23.90;36.90
4097;DHT22;2062;50.694;7.246;2022-09-27T09:16:44;24.00;36.90
4097;DHT22;2062;50.694;7.246;2022-09-27T09:19:38;24.00;36.80
4097;DHT22;2062;50.694;7.246;2022-09-27T09:22:19;24.00;36.90
4097;DHT22;2062;50.694;7.246;2022-09-27T09:25:00;23.90;36.80
4097;DHT22;2062;50.694;7.246;2022-09-27T09:27:36;24.00;36.80
4097;DHT22;2062;50.694;7.246;2022-09-27T09:30:18;24.00;36.80
4097;DHT22;2062;50.694;7.246;2022-09-27T09:33:00;24.00;36.70
4097;DHT22;2062;50.694;7.246;2022-09-27T09:35:36;24.00;36.70
4097;DHT22;2062;50.694;7.246;2022-09-27T09:38:09;24.00;36.70
4097;DHT22;2062;50.694;7.246;2022-09-27T09:40:40;24.00;36.60
4097;DHT22;2062;50.694;7.246;2022-09-27T09:43:12;24.00;36.70
4097;DHT22;2062;50.694;7.246;2022-09-27T09:45:44;24.00;36.80
4097;DHT22;2062;50.694;7.246;2022-09-27T09:48:18;24.00;37.00
4097;DHT22;2062;50.694;7.246;2022-09-27T09:50:48;24.00;37.10
4097;DHT22;2062;50.694;7.246;2022-09-27T09:53:19;24.00;37.10
4097;DHT22;2062;50.694;7.246;2022-09-27T09:55:51;24.00;37.10
4097;DHT22;2062;50.694;7.246;2022-09-27T09:58:25;24.00;36.90
4097;DHT22;2062;50.694;7.246;2022-09-27T10:00:56;24.10;36.90
4097;DHT22;2062;50.694;7.246;2022-09-27T10:03:26;24.10;37.00
4097;DHT22;2062;50.694;7.246;2022-09-27T10:05:53;24.10;36.80
4097;DHT22;2062;50.694;7.246;2022-09-27T10:08:21;24.10;36.80
4097;DHT22;2062;50.694;7.246;2022-09-27T10:10:49;24.10;36.80
4097;DHT22;2062;50.694;7.246;2022-09-27T10:13:18;24.10;36.80
4097;DHT22;2062;50.694;7.246;2022-09-27T10:15:53;24.10;36.80
4097;DHT22;2062;50.694;7.246;2022-09-27T10:18:20;24.10;36.80
4097;DHT22;2062;50.694;7.246;2022-09-27T10:20:52;24.10;36.80
4097;DHT22;2062;50.694;7.246;2022-09-27T10:23:22;24.10;36.70
4097;DHT22;2062;50.694;7.246;2022-09-27T10:25:51;24.10;36.90
4097;DHT22;2062;50.694;7.246;2022-09-27T10:28:31;24.10;36.70
4097;DHT22;2062;50.694;7.246;2022-09-27T10:31:01;24.10;36.60
4097;DHT22;2062;50.694;7.246;2022-09-27T10:33:30;24.10;36.70
4097;DHT22;2062;50.694;7.246;2022-09-27T10:35:59;24.10;36.60
4097;DHT22;2062;50.694;7.246;2022-09-27T10:38:28;24.10;36.60
4097;DHT22;2062;50.694;7.246;2022-09-27T10:40:57;24.10;36.60
4097;DHT22;2062;50.694;7.246;2022-09-27T10:43:28;24.10;36.50
4097;DHT22;2062;50.694;7.246;2022-09-27T10:46:02;24.10;36.50
4097;DHT22;2062;50.694;7.246;2022-09-27T10:48:29;24.10;36.40
4097;DHT22;2062;50.694;7.246;2022-09-27T10:50:58;24.10;36.50
4097;DHT22;2062;50.694;7.246;2022-09-27T10:53:26;24.10;36.40
4097;DHT22;2062;50.694;7.246;2022-09-27T10:55:55;24.10;36.40
4097;DHT22;2062;50.694;7.246;2022-09-27T10:58:26;24.10;36.40
4097;DHT22;2062;50.694;7.246;2022-09-27T11:00:55;24.10;36.40
4097;DHT22;2062;50.694;7.246;2022-09-27T11:03:23;24.10;36.40
4097;DHT22;2062;50.694;7.246;2022-09-27T11:05:53;24.10;36.40
4097;DHT22;2062;50.694;7.246;2022-09-27T11:08:27;24.10;36.30
4097;DHT22;2062;50.694;7.246;2022-09-27T11:11:06;24.10;36.30
4097;DHT22;2062;50.694;7.246;2022-09-27T11:13:33;24.10;36.30
4097;DHT22;2062;50.694;7.246;2022-09-27T11:16:22;24.10;36.40
4097;DHT22;2062;50.694;7.246;2022-09-27T11:19:05;24.10;36.20
4097;DHT22;2062;50.694;7.246;2022-09-27T11:21:40;24.00;36.10
4097;DHT22;2062;50.694;7.246;2022-09-27T11:24:26;24.10;36.30
4097;DHT22;2062;50.694;7.246;2022-09-27T11:27:08;24.10;36.50
4097;DHT22;2062;50.694;7.246;2022-09-27T11:29:47;24.10;36.50
4097;DHT22;2062;50.694;7.246;2022-09-27T11:32:27;24.10;36.70
4097;DHT22;2062;50.694;7.246;2022-09-27T11:35:09;24.10;36.70
4097;DHT22;2062;50.694;7.246;2022-09-27T11:37:51;24.10;36.90
4097;DHT22;2062;50.694;7.246;2022-09-27T11:40:31;24.10;36.80
4097;DHT22;2062;50.694;7.246;2022-09-27T11:43:20;24.10;36.90
4097;DHT22;2062;50.694;7.246;2022-09-27T11:45:56;24.10;36.90
4097;DHT22;2062;50.694;7.246;2022-09-27T11:48:42;24.10;36.90
4097;DHT22;2062;50.694;7.246;2022-09-27T11:51:27;24.10;36.50
4097;DHT22;2062;50.694;7.246;2022-09-27T11:54:05;24.10;36.30
4097;DHT22;2062;50.694;7.246;2022-09-27T11:56:48;24.20;36.40
4097;DHT22;2062;50.694;7.246;2022-09-27T12:02:43;24.10;36.60
4097;DHT22;2062;50.694;7.246;2022-09-27T12:05:31;24.20;36.70
4097;DHT22;2062;50.694;7.246;2022-09-27T12:08:14;24.10;36.70
4097;DHT22;2062;50.694;7.246;2022-09-27T12:10:47;24.20;36.80
4097;DHT22;2062;50.694;7.246;2022-09-27T12:13:23;24.10;36.90
4097;DHT22;2062;50.694;7.246;2022-09-27T12:15:51;24.10;36.90
4097;DHT22;2062;50.694;7.246;2022-09-27T12:18:24;24.20;37.00
4097;DHT22;2062;50.694;7.246;2022-09-27T12:20:53;24.20;37.00
4097;DHT22;2062;50.694;7.246;2022-09-27T12:23:23;24.20;37.10
4097;DHT22;2062;50.694;7.246;2022-09-27T12:25:56;24.20;37.10
4097;DHT22;2062;50.694;7.246;2022-09-27T12:28:33;24.20;37.20
4097;DHT22;2062;50.694;7.246;2022-09-27T12:31:08;24.20;37.40
4097;DHT22;2062;50.694;7.246;2022-09-27T12:33:43;24.20;37.50
4097;DHT22;2062;50.694;7.246;2022-09-27T12:36:16;24.30;37.60
4097;DHT22;2062;50.694;7.246;2022-09-27T12:38:49;24.30;37.80
4097;DHT22;2062;50.694;7.246;2022-09-27T12:41:21;24.30;37.90
4097;DHT22;2062;50.694;7.246;2022-09-27T12:43:51;24.30;37.90
4097;DHT22;2062;50.694;7.246;2022-09-27T12:46:26;24.30;38.00
4097;DHT22;2062;50.694;7.246;2022-09-27T12:49:04;24.40;38.00
4097;DHT22;2062;50.694;7.246;2022-09-27T12:51:37;24.30;38.00
4097;DHT22;2062;50.694;7.246;2022-09-27T12:54:22;24.30;37.40
4097;DHT22;2062;50.694;7.246;2022-09-27T12:56:56;24.30;37.00
4097;DHT22;2062;50.694;7.246;2022-09-27T12:59:38;24.30;37.30
4097;DHT22;2062;50.694;7.246;2022-09-27T13:02:49;24.30;37.40
4097;DHT22;2062;50.694;7.246;2022-09-27T13:05:30;24.30;37.40
4097;DHT22;2062;50.694;7.246;2022-09-27T13:08:15;24.30;37.40
4097;DHT22;2062;50.694;7.246;2022-09-27T13:10:53;24.30;37.50
4097;DHT22;2062;50.694;7.246;2022-09-27T13:13:23;24.30;37.50
4097;DHT22;2062;50.694;7.246;2022-09-27T13:15:56;24.30;37.50
4097;DHT22;2062;50.694;7.246;2022-09-27T13:21:55;24.30;36.60
4097;DHT22;2062;50.694;7.246;2022-09-27T13:24:46;24.30;36.30
4097;DHT22;2062;50.694;7.246;2022-09-27T13:27:37;24.30;36.30
4097;DHT22;2062;50.694;7.246;2022-09-27T13:33:31;24.30;36.30
4097;DHT22;2062;50.694;7.246;2022-09-27T13:36:07;24.30;36.30
4097;DHT22;2062;50.694;7.246;2022-09-27T13:38:36;24.30;36.20
4097;DHT22;2062;50.694;7.246;2022-09-27T13:41:13;24.30;36.30
4097;DHT22;2062;50.694;7.246;2022-09-27T13:43:52;24.20;36.10
4097;DHT22;2062;50.694;7.246;2022-09-27T13:46:24;24.20;36.10
4097;DHT22;2062;50.694;7.246;2022-09-27T13:48:54;24.20;36.10
4097;DHT22;2062;50.694;7.246;2022-09-27T13:51:33;24.20;36.10
4097;DHT22;2062;50.694;7.246;2022-09-27T13:54:04;24.20;36.10
4097;DHT22;2062;50.694;7.246;2022-09-27T13:56:52;24.20;36.00
4097;DHT22;2062;50.694;7.246;2022-09-27T13:59:25;24.20;36.00
4097;DHT22;2062;50.694;7.246;2022-09-27T14:02:01;24.20;35.90
4097;DHT22;2062;50.694;7.246;2022-09-27T14:04:36;24.20;35.90
4097;DHT22;2062;50.694;7.246;2022-09-27T14:07:11;24.20;36.20
4097;DHT22;2062;50.694;7.246;2022-09-27T14:09:43;24.20;36.10
4097;DHT22;2062;50.694;7.246;2022-09-27T14:12:14;24.20;36.20
4097;DHT22;2062;50.694;7.246;2022-09-27T14:14:44;24.10;36.20
4097;DHT22;2062;50.694;7.246;2022-09-27T14:17:12;24.10;36.20
4097;DHT22;2062;50.694;7.246;2022-09-27T14:19:40;24.10;36.20
4097;DHT22;2062;50.694;7.246;2022-09-27T14:22:12;24.10;36.20
4097;DHT22;2062;50.694;7.246;2022-09-27T14:24:46;24.10;36.30
4097;DHT22;2062;50.694;7.246;2022-09-27T14:27:15;24.10;36.20
4097;DHT22;2062;50.694;7.246;2022-09-27T14:29:46;24.10;36.30
4097;DHT22;2062;50.694;7.246;2022-09-27T14:32:16;24.10;36.30
4097;DHT22;2062;50.694;7.246;2022-09-27T14:34:43;24.10;36.30
4097;DHT22;2062;50.694;7.246;2022-09-27T14:37:19;24.10;36.30
4097;DHT22;2062;50.694;7.246;2022-09-27T14:39:58;24.10;36.30
4097;DHT22;2062;50.694;7.246;2022-09-27T14:42:26;24.10;36.20
4097;DHT22;2062;50.694;7.246;2022-09-27T14:45:00;24.10;35.80
4097;DHT22;2062;50.694;7.246;2022-09-27T14:47:29;24.00;35.80
4097;DHT22;2062;50.694;7.246;2022-09-27T14:49:58;24.10;36.00
4097;DHT22;2062;50.694;7.246;2022-09-27T14:52:27;24.10;36.00
4097;DHT22;2062;50.694;7.246;2022-09-27T14:55:01;24.10;36.00
4097;DHT22;2062;50.694;7.246;2022-09-27T14:57:30;24.00;35.90
4097;DHT22;2062;50.694;7.246;2022-09-27T15:00:00;24.00;36.00
4097;DHT22;2062;50.694;7.246;2022-09-27T15:02:40;24.00;35.90
4097;DHT22;2062;50.694;7.246;2022-09-27T15:05:14;24.00;36.00
4097;DHT22;2062;50.694;7.246;2022-09-27T15:07:42;24.00;35.90
4097;DHT22;2062;50.694;7.246;2022-09-27T15:10:14;24.00;36.00
4097;DHT22;2062;50.694;7.246;2022-09-27T15:12:44;24.00;36.00
4097;DHT22;2062;50.694;7.246;2022-09-27T15:15:15;24.00;36.00
4097;DHT22;2062;50.694;7.246;2022-09-27T15:17:45;24.00;36.00
4097;DHT22;2062;50.694;7.246;2022-09-27T15:20:21;24.00;36.00
4097;DHT22;2062;50.694;7.246;2022-09-27T15:22:49;24.00;36.00
4097;DHT22;2062;50.694;7.246;2022-09-27T15:25:21;24.00;36.00
4097;DHT22;2062;50.694;7.246;2022-09-27T15:27:51;24.00;36.00
4097;DHT22;2062;50.694;7.246;2022-09-27T15:30:24;23.90;36.00
4097;DHT22;2062;50.694;7.246;2022-09-27T15:32:53;24.00;36.00
4097;DHT22;2062;50.694;7.246;2022-09-27T15:35:26;23.90;36.00
4097;DHT22;2062;50.694;7.246;2022-09-27T15:38:11;24.00;36.00
4097;DHT22;2062;50.694;7.246;2022-09-27T15:40:59;23.90;36.00
4097;DHT22;2062;50.694;7.246;2022-09-27T15:43:27;24.00;36.00
4097;DHT22;2062;50.694;7.246;2022-09-27T15:45:57;24.00;36.00
4097;DHT22;2062;50.694;7.246;2022-09-27T15:48:27;23.90;36.00
4097;DHT22;2062;50.694;7.246;2022-09-27T15:50:55;23.90;36.00
4097;DHT22;2062;50.694;7.246;2022-09-27T15:53:42;23.90;36.00
4097;DHT22;2062;50.694;7.246;2022-09-27T15:56:13;23.90;36.00
4097;DHT22;2062;50.694;7.246;2022-09-27T15:58:41;23.90;36.00
4097;DHT22;2062;50.694;7.246;2022-09-27T16:01:19;23.90;36.60
4097;DHT22;2062;50.694;7.246;2022-09-27T16:03:47;23.90;36.60
4097;DHT22;2062;50.694;7.246;2022-09-27T16:06:14;23.90;36.00
4097;DHT22;2062;50.694;7.246;2022-09-27T16:08:41;23.90;36.00
4097;DHT22;2062;50.694;7.246;2022-09-27T16:11:14;23.90;36.00
4097;DHT22;2062;50.694;7.246;2022-09-27T16:13:41;23.90;36.00
4097;DHT22;2062;50.694;7.246;2022-09-27T16:16:16;23.90;36.00
4097;DHT22;2062;50.694;7.246;2022-09-27T16:18:43;23.90;36.00
4097;DHT22;2062;50.694;7.246;2022-09-27T16:21:11;23.90;36.00
4097;DHT22;2062;50.694;7.246;2022-09-27T16:23:38;23.90;36.00
4097;DHT22;2062;50.694;7.246;2022-09-27T16:26:05;23.90;36.00
4097;DHT22;2062;50.694;7.246;2022-09-27T16:28:33;23.90;36.00
4097;DHT22;2062;50.694;7.246;2022-09-27T16:31:04;23.90;36.00
4097;DHT22;2062;50.694;7.246;2022-09-27T16:33:32;23.80;35.90
4097;DHT22;2062;50.694;7.246;2022-09-27T16:36:04;23.80;36.00
4097;DHT22;2062;50.694;7.246;2022-09-27T16:38:32;23.80;35.90
4097;DHT22;2062;50.694;7.246;2022-09-27T16:40:59;23.80;35.90